This is the latest recevied weather packets stored in our database for station/object DH7LK-5. If no packets are shown the sender has not sent any weather packets the latest 10 day(s).
| Time | Temp. | Humidity | Pressure | Rain* | Wind** | Luminosity | Snow |
|---|---|---|---|---|---|---|---|
| 1777333007 | 8.89° C | 60% | - | 0 mm | - | - | - |
| 1777330730 | 9.44° C | 61% | - | 0 mm | - | - | - |
| 1777271977 | 10.56° C | 63% | - | 0 mm | - | - | - |
| 1777270001 | 7.78° C | 70% | - | 0 mm | - | - | - |
| 1777267976 | 6.11° C | 76% | - | 0 mm | - | - | - |
| 1777265328 | 3.89° C | 85% | - | 0 mm | - | - | - |
| 1777259289 | 3.33° C | 92% | - | 0 mm | - | - | - |
| 1777257451 | 3.89° C | 90% | - | 0 mm | - | - | - |
| 1777254839 | 3.89° C | 84% | - | 0 mm | - | - | - |
| 1777253812 | 4.44° C | 82% | - | 0 mm | - | - | - |
| 1777250995 | 5° C | 81% | - | 0 mm | - | - | - |
| 1777249124 | 5° C | 76% | - | 0 mm | - | - | - |
| 1777247164 | 5.56° C | 75% | - | 0 mm | - | - | - |
| 1777237844 | 7.22° C | 79% | - | 0 mm | - | - | - |
| 1777224569 | 13.33° C | 44% | - | 0 mm | - | - | - |
| 1777222767 | 13.89° C | 42% | - | 0 mm | - | - | - |
| 1777220963 | 14.44° C | 39% | - | 0 mm | - | - | - |
| 1777219207 | 14.44° C | 37% | - | 0 mm | - | - | - |
| 1777219146 | 14.44° C | 37% | - | 0 mm | - | - | - |
| 1777215206 | 14.44° C | 37% | - | 0 mm | - | - | - |
| 1777213967 | 14.44° C | 38% | - | 0 mm | - | - | - |
| 1777206664 | 13.89° C | 43% | - | 0 mm | - | - | - |
| 1777204307 | 13.89° C | 46% | - | 0 mm | - | - | - |
| 1777202330 | 13.33° C | 50% | - | 0 mm | - | - | - |
| 1777194121 | 11.11° C | 56% | - | 0 mm | - | - | - |
* Rain since midnight (hover to see other rain measurements)
** Current wind speed in m/s (hover to see current wind gust speed)